Beaverton, Oregon
Current Conditions -  °F | °C
As of 5:02 AM on Friday 24 Oct 2014 (Local Time) from KHIO Reporting Station
Haze Haze  
Wind Chill: 46°   Ceiling: Unl
Heat Index: 48°   Visibility: 6mi
Dew Point: 48°   Wind: 5mph
Humidity: 100%   Direction: 300°WNW
Pressure: 30.02"   Gusts: NA
Location:  45.49°N, 122.79°W
Report Text: KHIO 241202Z AUTO 30004KT 6SM BR CLR 09/09 A3002 RMK AO2 T00890089 TSNO
Loading
Personal Weather Stations






























Interactive Weather Map
Tropical Storm Tracking
New forecast layout! Learn more

10-Day Weather Forecast

Advertisements
Track Severe Weather on mobile